sensor_id;sensor_type;location;lat;lon;timestamp;pressure;altitude;pressure_sealevel;temperature;humidity
71043;BME280;58696;52.134;5.500;2023-08-08T00:01:15;101411.22;;;13.44;100.00
71043;BME280;58696;52.134;5.500;2023-08-08T00:03:42;101408.09;;;13.49;100.00
71043;BME280;58696;52.134;5.500;2023-08-08T00:06:13;101409.13;;;13.54;100.00
71043;BME280;58696;52.134;5.500;2023-08-08T00:08:40;101406.34;;;13.56;100.00
71043;BME280;58696;52.134;5.500;2023-08-08T00:11:10;101406.78;;;13.59;100.00
71043;BME280;58696;52.134;5.500;2023-08-08T00:13:39;101405.59;;;13.62;100.00
71043;BME280;58696;52.134;5.500;2023-08-08T00:16:06;101406.03;;;13.65;100.00
71043;BME280;58696;52.134;5.500;2023-08-08T00:18:37;101408.22;;;13.68;100.00
71043;BME280;58696;52.134;5.500;2023-08-08T00:21:04;101397.72;;;13.70;100.00
71043;BME280;58696;52.134;5.500;2023-08-08T00:23:32;101395.72;;;13.72;100.00
71043;BME280;58696;52.134;5.500;2023-08-08T00:26:01;101393.75;;;13.74;100.00
71043;BME280;58696;52.134;5.500;2023-08-08T00:28:27;101400.34;;;13.77;100.00
71043;BME280;58696;52.134;5.500;2023-08-08T00:30:56;101395.56;;;13.80;100.00
71043;BME280;58696;52.134;5.500;2023-08-08T00:33:23;101397.78;;;13.83;100.00
71043;BME280;58696;52.134;5.500;2023-08-08T00:35:49;101395.19;;;13.83;100.00
71043;BME280;58696;52.134;5.500;2023-08-08T00:38:18;101396.59;;;13.86;100.00
71043;BME280;58696;52.134;5.500;2023-08-08T00:40:47;101386.25;;;13.86;100.00
71043;BME280;58696;52.134;5.500;2023-08-08T00:43:14;101376.91;;;13.85;100.00
71043;BME280;58696;52.134;5.500;2023-08-08T00:45:42;101386.25;;;13.86;100.00
71043;BME280;58696;52.134;5.500;2023-08-08T00:48:10;101381.28;;;13.84;100.00
71043;BME280;58696;52.134;5.500;2023-08-08T00:50:37;101382.88;;;13.85;100.00
71043;BME280;58696;52.134;5.500;2023-08-08T00:53:04;101382.47;;;13.82;100.00
71043;BME280;58696;52.134;5.500;2023-08-08T00:55:43;101378.28;;;13.81;100.00
71043;BME280;58696;52.134;5.500;2023-08-08T00:58:09;101381.69;;;13.81;100.00
71043;BME280;58696;52.134;5.500;2023-08-08T01:00:39;101381.69;;;13.81;100.00
71043;BME280;58696;52.134;5.500;2023-08-08T01:03:08;101379.91;;;13.82;100.00
71043;BME280;58696;52.134;5.500;2023-08-08T01:06:02;101375.31;;;13.84;100.00
71043;BME280;58696;52.134;5.500;2023-08-08T01:08:38;101377.53;;;13.87;100.00
71043;BME280;58696;52.134;5.500;2023-08-08T01:11:08;101363.63;;;13.88;100.00
71043;BME280;58696;52.134;5.500;2023-08-08T01:13:40;101364.44;;;13.88;100.00
71043;BME280;58696;52.134;5.500;2023-08-08T01:16:07;101371.38;;;13.88;100.00
71043;BME280;58696;52.134;5.500;2023-08-08T01:18:36;101375.75;;;13.87;100.00
71043;BME280;58696;52.134;5.500;2023-08-08T01:21:03;101381.31;;;13.91;100.00
71043;BME280;58696;52.134;5.500;2023-08-08T01:26:12;101374.00;;;13.94;100.00
71043;BME280;58696;52.134;5.500;2023-08-08T01:28:47;101373.00;;;13.95;100.00
71043;BME280;58696;52.134;5.500;2023-08-08T01:31:14;101370.41;;;13.95;100.00
71043;BME280;58696;52.134;5.500;2023-08-08T01:33:46;101368.81;;;13.94;100.00
71043;BME280;58696;52.134;5.500;2023-08-08T01:36:39;101366.25;;;13.94;100.00
71043;BME280;58696;52.134;5.500;2023-08-08T01:39:17;101371.22;;;13.96;100.00
71043;BME280;58696;52.134;5.500;2023-08-08T01:41:44;101373.78;;;13.96;100.00
71043;BME280;58696;52.134;5.500;2023-08-08T01:44:15;101364.47;;;13.95;100.00
71043;BME280;58696;52.134;5.500;2023-08-08T01:46:42;101358.84;;;13.91;100.00
71043;BME280;58696;52.134;5.500;2023-08-08T01:49:08;101363.44;;;13.89;100.00
71043;BME280;58696;52.134;5.500;2023-08-08T01:51:35;101357.66;;;13.87;100.00
71043;BME280;58696;52.134;5.500;2023-08-08T01:54:04;101352.50;;;13.87;100.00
71043;BME280;58696;52.134;5.500;2023-08-08T01:56:34;101359.25;;;13.88;100.00
71043;BME280;58696;52.134;5.500;2023-08-08T01:59:06;101349.53;;;13.90;100.00
71043;BME280;58696;52.134;5.500;2023-08-08T02:01:35;101346.13;;;13.90;100.00
71043;BME280;58696;52.134;5.500;2023-08-08T02:04:05;101358.25;;;13.89;100.00
71043;BME280;58696;52.134;5.500;2023-08-08T02:06:31;101346.13;;;13.90;100.00
71043;BME280;58696;52.134;5.500;2023-08-08T02:09:01;101358.84;;;13.91;100.00
71043;BME280;58696;52.134;5.500;2023-08-08T02:11:31;101348.53;;;13.91;100.00
71043;BME280;58696;52.134;5.500;2023-08-08T02:14:03;101339.00;;;13.92;100.00
71043;BME280;58696;52.134;5.500;2023-08-08T02:16:29;101343.34;;;13.91;100.00
71043;BME280;58696;52.134;5.500;2023-08-08T02:18:58;101341.59;;;13.92;100.00
71043;BME280;58696;52.134;5.500;2023-08-08T02:21:25;101344.19;;;13.92;100.00
71043;BME280;58696;52.134;5.500;2023-08-08T02:23:54;101334.63;;;13.92;100.00
71043;BME280;58696;52.134;5.500;2023-08-08T02:26:21;101336.00;;;13.88;100.00
71043;BME280;58696;52.134;5.500;2023-08-08T02:28:50;101330.41;;;13.85;100.00
71043;BME280;58696;52.134;5.500;2023-08-08T02:31:18;101335.19;;;13.81;100.00
71043;BME280;58696;52.134;5.500;2023-08-08T02:33:52;101336.94;;;13.81;100.00
71043;BME280;58696;52.134;5.500;2023-08-08T02:36:23;101336.16;;;13.80;100.00
71043;BME280;58696;52.134;5.500;2023-08-08T02:38:50;101333.56;;;13.80;100.00
71043;BME280;58696;52.134;5.500;2023-08-08T02:41:22;101330.38;;;13.78;100.00
71043;BME280;58696;52.134;5.500;2023-08-08T02:43:51;101326.56;;;13.74;100.00
71043;BME280;58696;52.134;5.500;2023-08-08T02:46:21;101321.63;;;13.73;100.00
71043;BME280;58696;52.134;5.500;2023-08-08T02:48:50;101329.16;;;13.74;100.00
71043;BME280;58696;52.134;5.500;2023-08-08T02:51:21;101327.38;;;13.75;100.00
71043;BME280;58696;52.134;5.500;2023-08-08T02:53:50;101329.16;;;13.74;100.00
71043;BME280;58696;52.134;5.500;2023-08-08T02:56:17;101329.72;;;13.69;100.00
71043;BME280;58696;52.134;5.500;2023-08-08T02:58:46;101326.75;;;13.66;100.00
71043;BME280;58696;52.134;5.500;2023-08-08T03:01:16;101320.94;;;13.64;100.00
71043;BME280;58696;52.134;5.500;2023-08-08T03:03:43;101326.13;;;13.64;100.00
71043;BME280;58696;52.134;5.500;2023-08-08T03:06:10;101324.31;;;13.64;100.00
71043;BME280;58696;52.134;5.500;2023-08-08T03:08:38;101317.56;;;13.63;100.00
71043;BME280;58696;52.134;5.500;2023-08-08T03:11:07;101319.16;;;13.64;100.00
71043;BME280;58696;52.134;5.500;2023-08-08T03:13:36;101317.22;;;13.66;100.00
71043;BME280;58696;52.134;5.500;2023-08-08T03:16:04;101312.84;;;13.67;100.00
71043;BME280;58696;52.134;5.500;2023-08-08T03:18:38;101318.00;;;13.67;100.00
71043;BME280;58696;52.134;5.500;2023-08-08T03:21:05;101315.78;;;13.64;100.00
71043;BME280;58696;52.134;5.500;2023-08-08T03:23:31;101322.16;;;13.61;100.00
71043;BME280;58696;52.134;5.500;2023-08-08T03:25:59;101315.00;;;13.63;100.00
71043;BME280;58696;52.134;5.500;2023-08-08T03:28:26;101321.38;;;13.67;100.00
71043;BME280;58696;52.134;5.500;2023-08-08T03:30:53;101324.56;;;13.69;100.00
71043;BME280;58696;52.134;5.500;2023-08-08T03:33:20;101307.91;;;13.72;100.00
71043;BME280;58696;52.134;5.500;2023-08-08T03:35:49;101307.91;;;13.72;100.00
71043;BME280;58696;52.134;5.500;2023-08-08T03:38:18;101311.28;;;13.73;100.00
71043;BME280;58696;52.134;5.500;2023-08-08T03:40:51;101315.44;;;13.74;100.00
71043;BME280;58696;52.134;5.500;2023-08-08T03:43:21;101305.91;;;13.74;100.00
71043;BME280;58696;52.134;5.500;2023-08-08T03:45:50;101307.69;;;13.74;100.00
71043;BME280;58696;52.134;5.500;2023-08-08T03:48:17;101302.53;;;13.74;100.00
71043;BME280;58696;52.134;5.500;2023-08-08T03:50:44;101295.97;;;13.71;100.00
71043;BME280;58696;52.134;5.500;2023-08-08T03:53:12;101298.72;;;13.69;100.00
71043;BME280;58696;52.134;5.500;2023-08-08T03:55:43;101297.94;;;13.69;100.00
71043;BME280;58696;52.134;5.500;2023-08-08T03:58:09;101298.34;;;13.66;100.00
71043;BME280;58696;52.134;5.500;2023-08-08T04:00:39;101299.91;;;13.60;100.00
71043;BME280;58696;52.134;5.500;2023-08-08T04:03:16;101294.31;;;13.57;100.00
71043;BME280;58696;52.134;5.500;2023-08-08T04:05:49;101293.72;;;13.55;100.00
71043;BME280;58696;52.134;5.500;2023-08-08T04:08:24;101290.50;;;13.53;100.00
71043;BME280;58696;52.134;5.500;2023-08-08T04:10:57;101295.66;;;13.53;100.00
71043;BME280;58696;52.134;5.500;2023-08-08T04:13:27;101291.69;;;13.50;100.00
71043;BME280;58696;52.134;5.500;2023-08-08T04:15:59;101290.69;;;13.51;100.00
71043;BME280;58696;52.134;5.500;2023-08-08T04:18:31;101289.31;;;13.49;100.00
71043;BME280;58696;52.134;5.500;2023-08-08T04:20:58;101289.31;;;13.49;100.00
71043;BME280;58696;52.134;5.500;2023-08-08T04:23:25;101280.13;;;13.46;100.00
71043;BME280;58696;52.134;5.500;2023-08-08T04:25:52;101270.38;;;13.41;100.00
71043;BME280;58696;52.134;5.500;2023-08-08T04:28:20;101281.25;;;13.37;100.00
71043;BME280;58696;52.134;5.500;2023-08-08T04:30:50;101285.03;;;13.34;100.00
71043;BME280;58696;52.134;5.500;2023-08-08T04:33:17;101288.97;;;13.30;100.00
71043;BME280;58696;52.134;5.500;2023-08-08T04:35:49;101287.56;;;13.28;100.00
71043;BME280;58696;52.134;5.500;2023-08-08T04:38:15;101292.09;;;13.26;100.00
71043;BME280;58696;52.134;5.500;2023-08-08T04:40:47;101290.94;;;13.28;100.00
71043;BME280;58696;52.134;5.500;2023-08-08T04:43:16;101286.19;;;13.32;100.00
71043;BME280;58696;52.134;5.500;2023-08-08T04:45:42;101283.84;;;13.37;100.00
71043;BME280;58696;52.134;5.500;2023-08-08T04:48:10;101287.44;;;13.42;100.00
71043;BME280;58696;52.134;5.500;2023-08-08T04:50:37;101291.25;;;13.47;100.00
71043;BME280;58696;52.134;5.500;2023-08-08T04:53:06;101278.34;;;13.47;100.00
71043;BME280;58696;52.134;5.500;2023-08-08T04:55:35;101286.72;;;13.49;100.00
71043;BME280;58696;52.134;5.500;2023-08-08T04:58:05;101278.56;;;13.52;100.00
71043;BME280;58696;52.134;5.500;2023-08-08T05:00:31;101275.00;;;13.53;100.00
71043;BME280;58696;52.134;5.500;2023-08-08T05:02:59;101274.84;;;13.54;100.00
71043;BME280;58696;52.134;5.500;2023-08-08T05:05:27;101275.63;;;13.55;100.00
71043;BME280;58696;52.134;5.500;2023-08-08T05:07:53;101273.63;;;13.57;100.00
71043;BME280;58696;52.134;5.500;2023-08-08T05:10:20;101273.72;;;14.25;100.00
71043;BME280;58696;52.134;5.500;2023-08-08T05:12:48;101277.22;;;14.91;100.00
71043;BME280;58696;52.134;5.500;2023-08-08T05:15:17;101281.78;;;15.09;100.00
71043;BME280;58696;52.134;5.500;2023-08-08T05:17:44;101283.53;;;15.42;100.00
71043;BME280;58696;52.134;5.500;2023-08-08T05:20:11;101285.53;;;15.33;99.99
71043;BME280;58696;52.134;5.500;2023-08-08T05:22:42;101283.16;;;15.05;99.83
71043;BME280;58696;52.134;5.500;2023-08-08T05:25:11;101290.31;;;15.30;99.84
71043;BME280;58696;52.134;5.500;2023-08-08T05:27:40;101288.69;;;15.48;98.88
71043;BME280;58696;52.134;5.500;2023-08-08T05:30:07;101288.94;;;15.14;98.38
71043;BME280;58696;52.134;5.500;2023-08-08T05:32:35;101289.16;;;14.86;98.78
71043;BME280;58696;52.134;5.500;2023-08-08T05:35:06;101293.50;;;15.25;100.00
71043;BME280;58696;52.134;5.500;2023-08-08T05:37:37;101290.69;;;16.49;95.71
71043;BME280;58696;52.134;5.500;2023-08-08T05:40:04;101293.13;;;16.76;91.79
71043;BME280;58696;52.134;5.500;2023-08-08T05:42:35;101298.44;;;16.18;92.38
71043;BME280;58696;52.134;5.500;2023-08-08T05:45:02;101295.78;;;15.86;93.81
71043;BME280;58696;52.134;5.500;2023-08-08T05:47:28;101294.56;;;16.97;93.70
71043;BME280;58696;52.134;5.500;2023-08-08T05:49:55;101296.47;;;17.45;87.48
71043;BME280;58696;52.134;5.500;2023-08-08T05:52:24;101301.75;;;17.93;87.04
71043;BME280;58696;52.134;5.500;2023-08-08T05:54:51;101308.28;;;19.33;81.80
71043;BME280;58696;52.134;5.500;2023-08-08T05:57:20;101308.63;;;20.29;76.45
71043;BME280;58696;52.134;5.500;2023-08-08T05:59:48;101306.25;;;20.72;77.56
71043;BME280;58696;52.134;5.500;2023-08-08T06:02:14;101308.53;;;20.52;72.51
71043;BME280;58696;52.134;5.500;2023-08-08T06:04:43;101306.31;;;20.94;71.84
71043;BME280;58696;52.134;5.500;2023-08-08T06:07:10;101303.53;;;21.40;69.01
71043;BME280;58696;52.134;5.500;2023-08-08T06:09:39;101304.59;;;21.39;67.25
71043;BME280;58696;52.134;5.500;2023-08-08T06:12:08;101306.09;;;21.78;67.37
71043;BME280;58696;52.134;5.500;2023-08-08T06:14:37;101305.59;;;22.03;66.04
71043;BME280;58696;52.134;5.500;2023-08-08T06:17:12;101317.06;;;22.89;64.01
71043;BME280;58696;52.134;5.500;2023-08-08T06:19:43;101317.94;;;22.99;62.40
71043;BME280;58696;52.134;5.500;2023-08-08T06:22:10;101319.91;;;23.24;59.55
71043;BME280;58696;52.134;5.500;2023-08-08T06:24:37;101320.72;;;22.55;60.51
71043;BME280;58696;52.134;5.500;2023-08-08T06:27:04;101315.63;;;22.39;61.99
71043;BME280;58696;52.134;5.500;2023-08-08T06:29:48;101318.53;;;22.74;63.61
71043;BME280;58696;52.134;5.500;2023-08-08T06:32:14;101318.41;;;23.33;60.59
71043;BME280;58696;52.134;5.500;2023-08-08T06:34:43;101319.72;;;22.62;59.80
71043;BME280;58696;52.134;5.500;2023-08-08T06:37:13;101323.44;;;22.34;59.22
71043;BME280;58696;52.134;5.500;2023-08-08T06:39:43;101326.19;;;22.49;58.20
71043;BME280;58696;52.134;5.500;2023-08-08T06:42:12;101327.56;;;22.89;57.56
71043;BME280;58696;52.134;5.500;2023-08-08T06:44:43;101321.16;;;22.15;57.50
71043;BME280;58696;52.134;5.500;2023-08-08T06:47:15;101322.41;;;22.35;58.49
71043;BME280;58696;52.134;5.500;2023-08-08T06:49:44;101320.91;;;22.76;60.71
71043;BME280;58696;52.134;5.500;2023-08-08T06:52:11;101324.22;;;23.46;56.78
71043;BME280;58696;52.134;5.500;2023-08-08T06:54:42;101324.72;;;23.43;57.66
71043;BME280;58696;52.134;5.500;2023-08-08T06:57:09;101325.25;;;23.40;60.53
71043;BME280;58696;52.134;5.500;2023-08-08T06:59:36;101327.34;;;24.10;56.14
71043;BME280;58696;52.134;5.500;2023-08-08T07:02:05;101333.91;;;24.23;54.71
71043;BME280;58696;52.134;5.500;2023-08-08T07:04:35;101323.41;;;24.23;54.98
71043;BME280;58696;52.134;5.500;2023-08-08T07:07:04;101332.88;;;24.14;52.88
71043;BME280;58696;52.134;5.500;2023-08-08T07:09:31;101324.22;;;23.46;53.38
71043;BME280;58696;52.134;5.500;2023-08-08T07:12:06;101324.81;;;23.10;54.05
71043;BME280;58696;52.134;5.500;2023-08-08T07:14:34;101317.31;;;22.87;54.24
71043;BME280;58696;52.134;5.500;2023-08-08T07:17:01;101318.16;;;22.93;52.90
71043;BME280;58696;52.134;5.500;2023-08-08T07:19:35;101323.47;;;22.39;55.59
71043;BME280;58696;52.134;5.500;2023-08-08T07:22:03;101313.78;;;22.71;59.00
71043;BME280;58696;52.134;5.500;2023-08-08T07:24:29;101310.47;;;23.23;54.66
71043;BME280;58696;52.134;5.500;2023-08-08T07:26:57;101310.28;;;23.40;54.32
71043;BME280;58696;52.134;5.500;2023-08-08T07:29:26;101314.97;;;23.28;52.15
71043;BME280;58696;52.134;5.500;2023-08-08T07:31:57;101308.28;;;22.68;54.08
71043;BME280;58696;52.134;5.500;2023-08-08T07:34:28;101306.50;;;22.78;54.95
71043;BME280;58696;52.134;5.500;2023-08-08T07:36:54;101305.78;;;23.30;52.36
71043;BME280;58696;52.134;5.500;2023-08-08T07:39:25;101308.28;;;23.10;52.57
71043;BME280;58696;52.134;5.500;2023-08-08T07:41:52;101307.47;;;22.67;52.04
71043;BME280;58696;52.134;5.500;2023-08-08T07:44:21;101304.75;;;22.52;52.88
71043;BME280;58696;52.134;5.500;2023-08-08T07:46:49;101302.28;;;22.77;54.70
71043;BME280;58696;52.134;5.500;2023-08-08T07:49:17;101295.78;;;22.80;53.96
71043;BME280;58696;52.134;5.500;2023-08-08T07:51:46;101291.81;;;22.77;52.93
71043;BME280;58696;52.134;5.500;2023-08-08T07:54:17;101291.91;;;22.55;51.73
71043;BME280;58696;52.134;5.500;2023-08-08T07:56:49;101294.59;;;22.06;53.07
71043;BME280;58696;52.134;5.500;2023-08-08T07:59:21;101293.56;;;21.81;53.64
71043;BME280;58696;52.134;5.500;2023-08-08T08:01:50;101294.59;;;22.06;54.93
71043;BME280;58696;52.134;5.500;2023-08-08T08:04:19;101305.69;;;22.73;53.56
71043;BME280;58696;52.134;5.500;2023-08-08T08:06:48;101301.28;;;21.92;56.41
71043;BME280;58696;52.134;5.500;2023-08-08T08:09:19;101295.97;;;22.36;55.90
71043;BME280;58696;52.134;5.500;2023-08-08T08:11:50;101297.22;;;22.66;54.88
71043;BME280;58696;52.134;5.500;2023-08-08T08:14:18;101293.72;;;22.87;55.15
71043;BME280;58696;52.134;5.500;2023-08-08T08:16:45;101283.38;;;22.70;51.80
71043;BME280;58696;52.134;5.500;2023-08-08T08:19:11;101292.56;;;23.10;53.80
71043;BME280;58696;52.134;5.500;2023-08-08T08:21:38;101291.56;;;22.79;51.54
71043;BME280;58696;52.134;5.500;2023-08-08T08:24:05;101288.97;;;22.15;51.62
71043;BME280;58696;52.134;5.500;2023-08-08T08:26:32;101291.31;;;21.45;54.30
71043;BME280;58696;52.134;5.500;2023-08-08T08:28:59;101285.44;;;21.55;53.58
71043;BME280;58696;52.134;5.500;2023-08-08T08:31:26;101288.34;;;21.81;53.09
71043;BME280;58696;52.134;5.500;2023-08-08T08:33:53;101283.00;;;21.97;53.31
71043;BME280;58696;52.134;5.500;2023-08-08T08:36:25;101285.44;;;22.04;52.22
71043;BME280;58696;52.134;5.500;2023-08-08T08:38:52;101293.28;;;21.55;53.65
71043;BME280;58696;52.134;5.500;2023-08-08T08:41:25;101286.69;;;21.52;54.02
71043;BME280;58696;52.134;5.500;2023-08-08T08:43:53;101283.88;;;21.15;55.16
71043;BME280;58696;52.134;5.500;2023-08-08T08:46:21;101293.84;;;21.01;55.67
71043;BME280;58696;52.134;5.500;2023-08-08T08:48:49;101296.81;;;20.71;56.14
71043;BME280;58696;52.134;5.500;2023-08-08T08:51:18;101300.56;;;20.30;57.58
71043;BME280;58696;52.134;5.500;2023-08-08T08:53:46;101299.09;;;19.94;59.74
71043;BME280;58696;52.134;5.500;2023-08-08T08:56:16;101293.63;;;19.55;58.34
71043;BME280;58696;52.134;5.500;2023-08-08T08:58:43;101294.69;;;19.19;59.74
71043;BME280;58696;52.134;5.500;2023-08-08T09:01:12;101301.97;;;18.94;59.92
71043;BME280;58696;52.134;5.500;2023-08-08T09:03:45;101303.84;;;18.75;60.44
71043;BME280;58696;52.134;5.500;2023-08-08T09:06:19;101304.66;;;18.75;60.72
71043;BME280;58696;52.134;5.500;2023-08-08T09:08:52;101305.91;;;18.96;60.64
71043;BME280;58696;52.134;5.500;2023-08-08T09:11:31;101296.41;;;18.90;60.00
71043;BME280;58696;52.134;5.500;2023-08-08T09:13:58;101305.00;;;19.02;59.29
71043;BME280;58696;52.134;5.500;2023-08-08T09:16:28;101301.41;;;19.27;59.57
71043;BME280;58696;52.134;5.500;2023-08-08T09:18:55;101306.50;;;19.22;60.54
71043;BME280;58696;52.134;5.500;2023-08-08T09:21:22;101307.72;;;18.84;59.66
71043;BME280;58696;52.134;5.500;2023-08-08T09:23:53;101302.00;;;18.63;60.67
71043;BME280;58696;52.134;5.500;2023-08-08T09:26:20;101306.41;;;18.63;60.66
71043;BME280;58696;52.134;5.500;2023-08-08T09:28:46;101297.84;;;18.74;60.26
71043;BME280;58696;52.134;5.500;2023-08-08T09:31:17;101297.31;;;18.84;61.52
71043;BME280;58696;52.134;5.500;2023-08-08T09:33:46;101298.56;;;19.05;61.60
71043;BME280;58696;52.134;5.500;2023-08-08T09:36:15;101296.50;;;19.42;60.59
71043;BME280;58696;52.134;5.500;2023-08-08T09:38:42;101301.81;;;19.47;59.88
71043;BME280;58696;52.134;5.500;2023-08-08T09:41:12;101301.00;;;19.70;62.50
71043;BME280;58696;52.134;5.500;2023-08-08T09:43:44;101303.69;;;20.15;61.22
71043;BME280;58696;52.134;5.500;2023-08-08T09:46:12;101299.44;;;20.43;59.58
71043;BME280;58696;52.134;5.500;2023-08-08T09:48:44;101304.25;;;20.46;58.92
71043;BME280;58696;52.134;5.500;2023-08-08T09:51:14;101299.94;;;20.40;57.27
71043;BME280;58696;52.134;5.500;2023-08-08T09:53:41;101301.38;;;20.02;56.26
71043;BME280;58696;52.134;5.500;2023-08-08T09:56:14;101306.56;;;19.74;57.06
71043;BME280;58696;52.134;5.500;2023-08-08T09:58:46;101301.94;;;19.52;56.17
71043;BME280;58696;52.134;5.500;2023-08-08T10:01:15;101306.25;;;19.23;57.26
71043;BME280;58696;52.134;5.500;2023-08-08T10:03:45;101316.81;;;19.05;57.92
71043;BME280;58696;52.134;5.500;2023-08-08T10:06:14;101323.81;;;18.92;59.60
71043;BME280;58696;52.134;5.500;2023-08-08T10:08:42;101319.16;;;18.83;59.10
71043;BME280;58696;52.134;5.500;2023-08-08T10:11:13;101312.81;;;18.90;59.24
71043;BME280;58696;52.134;5.500;2023-08-08T10:13:50;101313.28;;;19.23;59.62
71043;BME280;58696;52.134;5.500;2023-08-08T10:16:19;101314.50;;;19.55;58.32
71043;BME280;58696;52.134;5.500;2023-08-08T10:18:52;101325.16;;;19.65;58.81
71043;BME280;58696;52.134;5.500;2023-08-08T10:21:27;101316.31;;;19.66;56.52
71043;BME280;58696;52.134;5.500;2023-08-08T10:24:10;101314.63;;;20.01;57.68
71043;BME280;58696;52.134;5.500;2023-08-08T10:26:52;101318.09;;;20.46;58.73
71043;BME280;58696;52.134;5.500;2023-08-08T10:29:27;101331.16;;;20.63;55.23
71043;BME280;58696;52.134;5.500;2023-08-08T10:34:41;101324.25;;;19.72;59.14
71043;BME280;58696;52.134;5.500;2023-08-08T10:37:13;101328.03;;;19.92;59.72
71043;BME280;58696;52.134;5.500;2023-08-08T10:40:08;101328.25;;;20.03;58.49
71043;BME280;58696;52.134;5.500;2023-08-08T10:42:45;101317.31;;;19.77;56.56
71043;BME280;58696;52.134;5.500;2023-08-08T10:45:15;101325.44;;;19.92;58.17
71043;BME280;58696;52.134;5.500;2023-08-08T10:47:46;101323.09;;;20.36;57.93
71043;BME280;58696;52.134;5.500;2023-08-08T10:50:25;101322.91;;;20.26;56.58
71043;BME280;58696;52.134;5.500;2023-08-08T10:52:54;101324.84;;;20.02;57.00
71043;BME280;58696;52.134;5.500;2023-08-08T10:58:20;101322.13;;;19.68;56.58
71043;BME280;58696;52.134;5.500;2023-08-08T11:00:48;101322.56;;;19.65;57.02
71043;BME280;58696;52.134;5.500;2023-08-08T11:03:21;101317.31;;;19.77;58.25
71043;BME280;58696;52.134;5.500;2023-08-08T11:05:52;101317.56;;;19.76;58.28
71043;BME280;58696;52.134;5.500;2023-08-08T11:08:22;101312.72;;;19.96;56.47
71043;BME280;58696;52.134;5.500;2023-08-08T11:10:52;101316.72;;;19.87;55.38
71043;BME280;58696;52.134;5.500;2023-08-08T11:13:19;101331.69;;;19.91;56.40
71043;BME280;58696;52.134;5.500;2023-08-08T11:15:48;101323.03;;;20.03;55.72
71043;BME280;58696;52.134;5.500;2023-08-08T11:18:22;101325.00;;;19.95;56.08
71043;BME280;58696;52.134;5.500;2023-08-08T11:20:49;101323.16;;;19.96;56.63
71043;BME280;58696;52.134;5.500;2023-08-08T11:23:36;101329.53;;;20.17;57.86
71043;BME280;58696;52.134;5.500;2023-08-08T11:26:05;101323.63;;;20.21;56.24
71043;BME280;58696;52.134;5.500;2023-08-08T11:28:34;101317.84;;;20.19;56.46
71043;BME280;58696;52.134;5.500;2023-08-08T11:31:01;101321.41;;;20.13;57.47
71043;BME280;58696;52.134;5.500;2023-08-08T11:33:31;101321.69;;;20.17;56.54
71043;BME280;58696;52.134;5.500;2023-08-08T11:36:04;101316.59;;;19.93;55.42
71043;BME280;58696;52.134;5.500;2023-08-08T11:38:34;101315.84;;;19.81;58.01
71043;BME280;58696;52.134;5.500;2023-08-08T11:41:01;101307.13;;;20.04;57.86
71043;BME280;58696;52.134;5.500;2023-08-08T11:43:31;101307.53;;;20.41;57.60
71043;BME280;58696;52.134;5.500;2023-08-08T11:46:05;101310.00;;;20.48;54.78
71043;BME280;58696;52.134;5.500;2023-08-08T11:48:39;101306.00;;;20.57;55.68
71043;BME280;58696;52.134;5.500;2023-08-08T11:51:09;101298.78;;;20.81;55.30
71043;BME280;58696;52.134;5.500;2023-08-08T11:53:36;101302.25;;;20.70;54.95
71043;BME280;58696;52.134;5.500;2023-08-08T11:56:14;101307.69;;;20.35;54.69
71043;BME280;58696;52.134;5.500;2023-08-08T11:58:47;101298.94;;;20.12;57.10
71043;BME280;58696;52.134;5.500;2023-08-08T12:01:14;101306.19;;;20.10;55.45
71043;BME280;58696;52.134;5.500;2023-08-08T12:03:48;101309.69;;;20.16;55.29
71043;BME280;58696;52.134;5.500;2023-08-08T12:06:16;101314.59;;;20.12;55.93
71043;BME280;58696;52.134;5.500;2023-08-08T12:08:45;101301.34;;;20.31;56.28
71043;BME280;58696;52.134;5.500;2023-08-08T12:11:16;101301.97;;;20.38;57.65
71043;BME280;58696;52.134;5.500;2023-08-08T12:13:44;101308.13;;;20.32;56.75
71043;BME280;58696;52.134;5.500;2023-08-08T12:16:11;101291.34;;;20.56;58.26
71043;BME280;58696;52.134;5.500;2023-08-08T12:18:44;101301.00;;;20.72;57.17
71043;BME280;58696;52.134;5.500;2023-08-08T12:21:14;101299.34;;;20.83;57.77
71043;BME280;58696;52.134;5.500;2023-08-08T12:23:43;101292.31;;;20.84;56.35
71043;BME280;58696;52.134;5.500;2023-08-08T12:26:11;101305.38;;;20.67;56.43
71043;BME280;58696;52.134;5.500;2023-08-08T12:28:37;101296.59;;;20.56;55.89
71043;BME280;58696;52.134;5.500;2023-08-08T12:31:11;101302.88;;;20.60;56.30
71043;BME280;58696;52.134;5.500;2023-08-08T12:33:42;101306.13;;;20.22;56.32
71043;BME280;58696;52.134;5.500;2023-08-08T12:36:12;101306.47;;;20.26;57.77
71043;BME280;58696;52.134;5.500;2023-08-08T12:38:41;101302.47;;;20.35;57.83
71043;BME280;58696;52.134;5.500;2023-08-08T12:41:12;101299.63;;;20.08;58.29
71043;BME280;58696;52.134;5.500;2023-08-08T12:43:44;101304.91;;;19.84;59.10
71043;BME280;58696;52.134;5.500;2023-08-08T12:46:13;101301.13;;;20.04;60.17
71043;BME280;58696;52.134;5.500;2023-08-08T12:48:50;101300.03;;;20.16;56.86
71043;BME280;58696;52.134;5.500;2023-08-08T12:51:23;101310.13;;;19.84;57.64
71043;BME280;58696;52.134;5.500;2023-08-08T12:53:51;101305.50;;;19.86;60.17
71043;BME280;58696;52.134;5.500;2023-08-08T12:56:19;101301.50;;;19.95;57.79
71043;BME280;58696;52.134;5.500;2023-08-08T12:58:51;101288.66;;;20.51;58.39
71043;BME280;58696;52.134;5.500;2023-08-08T13:01:18;101300.09;;;21.17;56.87
71043;BME280;58696;52.134;5.500;2023-08-08T13:03:45;101294.41;;;21.04;57.46
71043;BME280;58696;52.134;5.500;2023-08-08T13:06:26;101301.31;;;20.59;57.00